createdAt,value
2022-11-26T00:00:51.505Z,8.11
2022-11-26T00:03:21.352Z,8.09
2022-11-26T00:05:51.887Z,8.07
2022-11-26T00:08:24.109Z,8.06
2022-11-26T00:10:54.316Z,8.06
2022-11-26T00:13:24.718Z,8.04
2022-11-26T00:15:53.450Z,8.04
2022-11-26T00:18:26.789Z,8.02
2022-11-26T00:20:57.379Z,7.98
2022-11-26T00:23:27.617Z,7.98
2022-11-26T00:25:58.250Z,7.96
2022-11-26T00:28:29.922Z,7.96
2022-11-26T00:31:01.241Z,7.95
2022-11-26T00:33:31.458Z,7.91
2022-11-26T00:36:03.827Z,7.92
2022-11-26T00:38:32.297Z,7.92
2022-11-26T00:41:00.542Z,7.89
2022-11-26T00:43:28.458Z,7.86
2022-11-26T00:45:56.452Z,7.83
2022-11-26T00:48:24.428Z,7.83
2022-11-26T00:50:53.721Z,7.81
2022-11-26T00:53:25.846Z,7.80
2022-11-26T00:55:53.672Z,7.78
2022-11-26T00:58:26.728Z,7.78
2022-11-26T01:00:55.595Z,7.76
2022-11-26T01:03:24.003Z,7.75
2022-11-26T01:05:55.572Z,7.75
2022-11-26T01:08:30.949Z,7.72
2022-11-26T01:10:58.878Z,7.70
2022-11-26T01:13:27.113Z,7.67
2022-11-26T01:15:55.711Z,7.70
2022-11-26T01:18:24.832Z,7.73
2022-11-26T01:20:54.112Z,7.74
2022-11-26T01:23:22.172Z,7.74
2022-11-26T01:25:50.099Z,7.77
2022-11-26T01:28:20.147Z,7.76
2022-11-26T01:30:48.154Z,7.75
2022-11-26T01:33:15.991Z,7.72
2022-11-26T01:35:44.046Z,7.71
2022-11-26T01:38:15.343Z,7.68
2022-11-26T01:41:04.137Z,7.67
2022-11-26T01:43:38.308Z,7.68
2022-11-26T01:46:15.097Z,7.62
2022-11-26T01:48:43.281Z,7.60
2022-11-26T01:51:11.724Z,7.58
2022-11-26T01:53:47.089Z,7.56
2022-11-26T01:56:23.321Z,7.53
2022-11-26T01:58:57.800Z,7.54
2022-11-26T02:01:26.045Z,7.55
2022-11-26T02:04:03.738Z,7.53
2022-11-26T02:06:33.924Z,7.44
2022-11-26T02:09:06.916Z,7.42
2022-11-26T02:11:35.020Z,7.42
2022-11-26T02:14:06.165Z,7.40
2022-11-26T02:16:57.495Z,7.40
2022-11-26T02:19:49.154Z,7.38
2022-11-26T02:22:35.219Z,7.34
2022-11-26T02:25:18.434Z,7.34
2022-11-26T02:28:02.361Z,7.34
2022-11-26T02:30:37.695Z,7.33
2022-11-26T02:33:12.532Z,7.31
2022-11-26T02:35:44.640Z,7.31
2022-11-26T02:38:16.741Z,7.31
2022-11-26T02:40:44.602Z,7.30
2022-11-26T02:43:14.530Z,7.27
2022-11-26T02:45:47.575Z,7.25
2022-11-26T02:48:21.544Z,7.24
2022-11-26T02:50:53.719Z,7.21
2022-11-26T02:53:24.695Z,7.17
2022-11-26T02:55:58.513Z,7.14
2022-11-26T02:58:26.373Z,7.11
2022-11-26T03:01:00.428Z,7.06
2022-11-26T03:03:33.195Z,7.03
2022-11-26T03:06:05.874Z,7.02
2022-11-26T03:08:34.394Z,6.97
2022-11-26T03:11:02.258Z,6.90
2022-11-26T03:13:30.199Z,6.87
2022-11-26T03:16:00.039Z,6.81
2022-11-26T03:18:28.087Z,6.74
2022-11-26T03:20:55.971Z,6.71
2022-11-26T03:23:23.843Z,6.74
2022-11-26T03:25:51.726Z,6.73
2022-11-26T03:28:19.550Z,6.71
2022-11-26T03:30:47.384Z,6.66
2022-11-26T03:33:16.649Z,6.65
2022-11-26T03:35:44.636Z,6.65
2022-11-26T03:38:12.467Z,6.65
2022-11-26T03:40:40.334Z,6.66
2022-11-26T03:43:08.146Z,6.66
2022-11-26T03:45:36.180Z,6.68
2022-11-26T03:48:04.132Z,6.73
2022-11-26T03:50:33.389Z,6.71
2022-11-26T03:53:01.240Z,6.75
2022-11-26T03:55:29.137Z,6.78
2022-11-26T03:57:56.943Z,6.82
2022-11-26T04:00:24.956Z,6.89
2022-11-26T04:02:52.870Z,6.92
2022-11-26T04:05:20.815Z,6.97
2022-11-26T04:07:50.175Z,7.03
2022-11-26T04:10:18.227Z,7.04
2022-11-26T04:12:46.082Z,7.04
2022-11-26T04:15:13.939Z,7.07
2022-11-26T04:17:41.904Z,7.08
2022-11-26T04:20:10.766Z,7.09
2022-11-26T04:22:38.727Z,7.07
2022-11-26T04:25:08.855Z,7.09
2022-11-26T04:27:36.821Z,7.06
2022-11-26T04:30:05.472Z,7.05
2022-11-26T04:32:33.319Z,7.04
2022-11-26T04:35:01.360Z,7.03
2022-11-26T04:37:29.228Z,7.03
2022-11-26T04:39:57.231Z,7.03
2022-11-26T04:42:26.517Z,7.06
2022-11-26T04:44:54.562Z,7.07
2022-11-26T04:47:22.614Z,7.06
2022-11-26T04:49:50.491Z,7.07
2022-11-26T04:52:18.684Z,7.07
2022-11-26T04:54:46.608Z,7.08
2022-11-26T04:57:15.603Z,7.12
2022-11-26T04:59:46.155Z,7.14
2022-11-26T05:02:14.077Z,7.15
2022-11-26T05:04:42.044Z,7.14
2022-11-26T05:07:09.974Z,7.15
2022-11-26T05:09:37.964Z,7.15
2022-11-26T05:12:06.199Z,7.18
2022-11-26T05:14:36.734Z,7.20
2022-11-26T05:17:06.295Z,7.26
2022-11-26T05:19:34.523Z,7.30
2022-11-26T05:22:02.437Z,7.28
2022-11-26T05:24:30.292Z,7.30
2022-11-26T05:26:58.178Z,7.35
2022-11-26T05:29:26.822Z,7.34
2022-11-26T05:31:54.794Z,7.34
2022-11-26T05:34:24.338Z,7.36
2022-11-26T05:36:52.293Z,7.36
2022-11-26T05:39:20.233Z,7.36
2022-11-26T05:41:48.133Z,7.38
2022-11-26T05:44:16.099Z,7.40
2022-11-26T05:46:44.553Z,7.40
2022-11-26T05:49:12.455Z,7.42
2022-11-26T05:51:41.921Z,7.43
2022-11-26T05:54:13.655Z,7.43
2022-11-26T05:56:42.048Z,7.41
2022-11-26T05:59:10.234Z,7.40
2022-11-26T06:01:38.409Z,7.39
2022-11-26T06:04:06.811Z,7.37
2022-11-26T06:06:35.200Z,7.38
2022-11-26T06:09:05.922Z,7.38
2022-11-26T06:11:34.237Z,7.38
2022-11-26T06:14:02.161Z,7.41
2022-11-26T06:16:30.120Z,7.41
2022-11-26T06:18:59.194Z,7.41
2022-11-26T06:21:27.090Z,7.40
2022-11-26T06:23:59.311Z,7.38
2022-11-26T06:26:29.223Z,7.34
2022-11-26T06:28:57.213Z,7.32
2022-11-26T06:31:25.123Z,7.33
2022-11-26T06:33:55.309Z,7.29
2022-11-26T06:36:23.916Z,7.26
2022-11-26T06:38:52.012Z,7.26
2022-11-26T06:41:23.107Z,7.24
2022-11-26T06:43:52.379Z,7.24
2022-11-26T06:46:20.288Z,7.22
2022-11-26T06:48:48.273Z,7.17
2022-11-26T06:51:17.287Z,7.14
2022-11-26T06:53:45.162Z,7.14
2022-11-26T06:56:18.424Z,7.12
2022-11-26T06:58:47.508Z,7.07
2022-11-26T07:01:19.762Z,7.07
2022-11-26T07:03:48.288Z,7.06
2022-11-26T07:06:18.044Z,7.06
2022-11-26T07:08:46.353Z,7.05
2022-11-26T07:11:14.802Z,7.07
2022-11-26T07:13:42.762Z,7.04
2022-11-26T07:16:11.295Z,7.05
2022-11-26T07:18:40.634Z,7.05
2022-11-26T07:21:10.732Z,7.04
2022-11-26T07:23:38.588Z,7.05
2022-11-26T07:26:08.382Z,7.08
2022-11-26T07:28:36.774Z,7.09
2022-11-26T07:31:11.537Z,7.13
2022-11-26T07:33:44.451Z,7.18
2022-11-26T07:36:16.975Z,7.21
2022-11-26T07:38:44.555Z,7.24
2022-11-26T07:41:13.874Z,7.27
2022-11-26T07:43:43.501Z,7.33
2022-11-26T07:46:13.301Z,7.34
2022-11-26T07:48:41.287Z,7.37
2022-11-26T07:51:17.945Z,7.41
2022-11-26T07:53:45.786Z,7.49
2022-11-26T07:56:13.596Z,7.54
2022-11-26T07:58:41.663Z,7.57
2022-11-26T08:01:11.391Z,7.60
2022-11-26T08:03:40.485Z,7.63
2022-11-26T08:06:11.835Z,7.68
2022-11-26T08:08:40.297Z,7.69
2022-11-26T08:11:14.653Z,7.72
2022-11-26T08:13:42.583Z,7.77
2022-11-26T08:16:10.633Z,7.83
2022-11-26T08:18:38.495Z,7.85
2022-11-26T08:21:06.449Z,7.88
2022-11-26T08:23:36.125Z,7.88
2022-11-26T08:26:22.687Z,7.88
2022-11-26T08:28:53.160Z,7.91
2022-11-26T08:31:21.252Z,7.92
2022-11-26T08:33:49.187Z,7.94
2022-11-26T08:36:16.969Z,7.95
2022-11-26T08:38:46.214Z,7.98
2022-11-26T08:41:14.770Z,8.02
2022-11-26T08:46:30.881Z,8.05
2022-11-26T08:48:59.152Z,8.08
2022-11-26T08:51:27.239Z,8.10
2022-11-26T08:53:56.591Z,8.14
2022-11-26T08:56:24.462Z,8.18
2022-11-26T08:58:52.470Z,8.20
2022-11-26T09:01:22.163Z,8.27
2022-11-26T09:03:50.967Z,8.30
2022-11-26T09:06:19.822Z,8.32
2022-11-26T09:09:01.858Z,8.36
2022-11-26T09:11:31.070Z,8.42
2022-11-26T09:14:14.419Z,8.46
2022-11-26T09:16:42.221Z,8.48
2022-11-26T09:19:11.431Z,8.54
2022-11-26T09:21:39.291Z,8.55
2022-11-26T09:24:07.703Z,8.57
2022-11-26T09:26:36.893Z,8.54
2022-11-26T09:29:05.407Z,8.55
2022-11-26T09:31:33.629Z,8.56
2022-11-26T09:34:02.624Z,8.59
2022-11-26T09:36:30.847Z,8.64
2022-11-26T09:38:59.698Z,8.68
2022-11-26T09:41:46.114Z,8.74
2022-11-26T09:44:30.162Z,8.76
2022-11-26T09:47:14.014Z,8.80
2022-11-26T09:49:50.783Z,8.87
2022-11-26T09:52:22.118Z,8.92
2022-11-26T09:54:52.708Z,8.94
2022-11-26T09:57:28.708Z,8.99
2022-11-26T09:59:57.438Z,9.02
2022-11-26T10:02:26.806Z,9.07
2022-11-26T10:04:54.817Z,9.14
2022-11-26T10:07:41.865Z,9.21
2022-11-26T10:10:17.553Z,9.26
2022-11-26T10:13:18.096Z,9.33
2022-11-26T10:15:55.100Z,9.41
2022-11-26T10:18:34.147Z,9.51
2022-11-26T10:21:13.601Z,9.56
2022-11-26T10:23:46.305Z,9.64
2022-11-26T10:26:17.800Z,9.69
2022-11-26T10:28:49.177Z,9.74
2022-11-26T10:31:22.010Z,9.78
2022-11-26T10:33:57.540Z,9.82
2022-11-26T10:36:28.405Z,9.86
2022-11-26T10:38:57.273Z,9.90
2022-11-26T10:41:27.424Z,9.96
2022-11-26T10:43:56.506Z,10.00
2022-11-26T10:46:35.468Z,10.05
2022-11-26T10:49:17.898Z,10.11
2022-11-26T10:51:49.232Z,10.14
2022-11-26T10:54:26.291Z,10.13
2022-11-26T10:56:54.992Z,10.13
2022-11-26T10:59:29.368Z,10.10
2022-11-26T11:02:02.986Z,10.09
2022-11-26T11:04:33.390Z,10.09
2022-11-26T11:07:01.173Z,10.10
2022-11-26T11:09:33.768Z,10.11
2022-11-26T11:12:20.788Z,10.16
2022-11-26T11:14:51.606Z,10.21
2022-11-26T11:17:31.471Z,10.27
2022-11-26T11:20:01.228Z,10.28
2022-11-26T11:22:29.266Z,10.34
2022-11-26T11:24:59.580Z,10.38
2022-11-26T11:27:34.020Z,10.41
2022-11-26T11:30:03.257Z,10.45
2022-11-26T11:32:35.645Z,10.48
2022-11-26T11:35:21.628Z,10.50
2022-11-26T11:37:50.606Z,10.50
2022-11-26T11:40:25.106Z,10.54
2022-11-26T11:42:56.494Z,10.56
2022-11-26T11:45:34.828Z,10.63
2022-11-26T11:48:16.896Z,10.69
2022-11-26T11:50:51.541Z,10.76
2022-11-26T11:53:34.443Z,10.82
2022-11-26T11:56:26.639Z,10.88
2022-11-26T11:59:19.365Z,10.90
2022-11-26T12:01:59.528Z,10.89
2022-11-26T12:04:58.675Z,10.85
2022-11-26T12:07:42.864Z,10.82
2022-11-26T12:10:15.647Z,10.85
2022-11-26T12:12:47.964Z,10.92
2022-11-26T12:15:26.241Z,10.94
2022-11-26T12:18:01.698Z,10.96
2022-11-26T12:20:34.919Z,11.00
2022-11-26T12:23:24.346Z,11.03
2022-11-26T12:25:57.933Z,11.08
2022-11-26T12:28:28.871Z,11.12
2022-11-26T12:31:02.417Z,11.14
2022-11-26T12:33:37.654Z,11.17
2022-11-26T12:36:13.780Z,11.20
2022-11-26T12:38:46.265Z,11.23
2022-11-26T12:41:17.927Z,11.23
2022-11-26T12:43:52.050Z,11.25
2022-11-26T12:46:24.396Z,11.28
2022-11-26T12:48:57.780Z,11.31
2022-11-26T12:51:34.537Z,11.30
2022-11-26T12:54:10.988Z,11.25
2022-11-26T12:56:44.820Z,11.24
2022-11-26T12:59:23.243Z,11.21
2022-11-26T13:01:51.799Z,11.21
2022-11-26T13:04:37.333Z,11.19
2022-11-26T13:07:18.932Z,11.17
2022-11-26T13:10:00.130Z,11.15
2022-11-26T13:12:39.815Z,11.15
2022-11-26T13:15:19.246Z,11.16
2022-11-26T13:17:50.567Z,11.17
2022-11-26T13:20:52.908Z,11.21
2022-11-26T13:23:34.077Z,11.24
2022-11-26T13:26:22.957Z,11.21
2022-11-26T13:29:05.397Z,11.25
2022-11-26T13:31:51.802Z,11.28
2022-11-26T13:34:31.775Z,11.33
2022-11-26T13:37:25.860Z,11.38
2022-11-26T13:40:30.611Z,11.44
2022-11-26T13:43:17.046Z,11.46
2022-11-26T13:46:08.375Z,11.49
2022-11-26T13:48:43.780Z,11.50
2022-11-26T13:51:20.559Z,11.54
2022-11-26T13:53:56.129Z,11.57
2022-11-26T13:56:28.114Z,11.57
2022-11-26T13:59:00.585Z,11.59
2022-11-26T14:01:29.680Z,11.62
2022-11-26T14:03:58.255Z,11.63
2022-11-26T14:06:28.037Z,11.63
2022-11-26T14:09:00.336Z,11.61
2022-11-26T14:11:58.251Z,11.59
2022-11-26T14:14:36.402Z,11.57
2022-11-26T14:17:22.530Z,11.50
2022-11-26T14:20:05.451Z,11.41
2022-11-26T14:22:34.802Z,11.37
2022-11-26T14:25:06.981Z,11.34
2022-11-26T14:27:36.417Z,11.30
2022-11-26T14:30:26.041Z,11.27
2022-11-26T14:33:15.018Z,11.23
2022-11-26T14:35:54.906Z,11.19
2022-11-26T14:38:25.431Z,11.14
2022-11-26T14:41:01.949Z,11.12
2022-11-26T14:43:30.471Z,11.11
2022-11-26T14:46:07.843Z,11.08
2022-11-26T14:48:38.278Z,11.06
2022-11-26T14:51:09.363Z,11.04
2022-11-26T14:53:41.370Z,11.04
2022-11-26T14:56:11.311Z,11.04
2022-11-26T14:58:43.167Z,11.01
2022-11-26T15:01:21.373Z,10.98
2022-11-26T15:03:58.235Z,10.96
2022-11-26T15:06:28.912Z,10.95
2022-11-26T15:09:14.498Z,10.94
2022-11-26T15:11:48.937Z,10.91
2022-11-26T15:14:21.923Z,10.91
2022-11-26T15:16:56.699Z,10.86
2022-11-26T15:19:25.230Z,10.85
2022-11-26T15:21:53.126Z,10.82
2022-11-26T15:24:21.320Z,10.78
2022-11-26T15:26:50.648Z,10.74
2022-11-26T15:29:30.998Z,10.70
2022-11-26T15:31:59.523Z,10.68
2022-11-26T15:34:29.357Z,10.67
2022-11-26T15:36:57.260Z,10.64
2022-11-26T15:39:27.300Z,10.63
2022-11-26T15:42:00.205Z,10.60
2022-11-26T15:44:30.336Z,10.58
2022-11-26T15:47:03.693Z,10.54
2022-11-26T15:49:36.696Z,10.52
2022-11-26T15:52:07.351Z,10.49
2022-11-26T15:55:04.476Z,10.48
2022-11-26T15:57:30.799Z,10.44
2022-11-26T16:00:01.953Z,10.42
2022-11-26T16:02:31.248Z,10.42
2022-11-26T16:05:00.404Z,10.34
2022-11-26T16:07:30.032Z,10.31
2022-11-26T16:10:22.052Z,10.31
2022-11-26T16:13:23.107Z,10.30
2022-11-26T16:15:55.885Z,10.28
2022-11-26T16:18:36.850Z,10.27
2022-11-26T16:21:07.540Z,10.25
2022-11-26T16:23:35.919Z,10.23
2022-11-26T16:26:17.528Z,10.21
2022-11-26T16:28:48.006Z,10.18
2022-11-26T16:31:17.312Z,10.14
2022-11-26T16:33:45.271Z,10.12
2022-11-26T16:36:19.532Z,10.08
2022-11-26T16:38:48.044Z,10.00
2022-11-26T16:41:17.431Z,9.97
2022-11-26T16:43:47.246Z,9.95
2022-11-26T16:46:17.021Z,9.93
2022-11-26T16:48:46.033Z,9.90
2022-11-26T16:51:14.054Z,9.83
2022-11-26T16:53:41.910Z,9.82
2022-11-26T16:56:19.258Z,9.78
2022-11-26T16:58:48.670Z,9.77
2022-11-26T17:01:16.487Z,9.75
2022-11-26T17:03:44.613Z,9.74
2022-11-26T17:06:14.812Z,9.72
2022-11-26T17:08:49.216Z,9.70
2022-11-26T17:11:18.266Z,9.64
2022-11-26T17:13:46.005Z,9.63
2022-11-26T17:16:17.910Z,9.59
2022-11-26T17:18:45.778Z,9.52
2022-11-26T17:21:14.011Z,9.49
2022-11-26T17:23:41.940Z,9.47
2022-11-26T17:26:17.801Z,9.46
2022-11-26T17:28:45.613Z,9.43
2022-11-26T17:31:13.432Z,9.42
2022-11-26T17:33:45.121Z,9.37
2022-11-26T17:36:18.050Z,9.34
2022-11-26T17:38:46.586Z,9.34
2022-11-26T17:41:15.765Z,9.30
2022-11-26T17:43:44.045Z,9.30
2022-11-26T17:46:16.188Z,9.25
2022-11-26T17:48:45.800Z,9.23
2022-11-26T17:51:14.774Z,9.21
2022-11-26T17:53:43.449Z,9.17
2022-11-26T17:56:18.114Z,9.16
2022-11-26T17:58:46.189Z,9.16
2022-11-26T18:01:14.874Z,9.17
2022-11-26T18:03:42.956Z,9.16
2022-11-26T18:06:16.660Z,9.11
2022-11-26T18:08:44.623Z,9.09
2022-11-26T18:11:12.952Z,9.08
2022-11-26T18:13:40.750Z,9.02
2022-11-26T18:16:08.687Z,9.00
2022-11-26T18:18:36.491Z,8.97
2022-11-26T18:21:04.308Z,8.97
2022-11-26T18:23:33.491Z,8.92
2022-11-26T18:26:01.863Z,8.91
2022-11-26T18:28:29.738Z,8.91
2022-11-26T18:30:58.459Z,8.89
2022-11-26T18:33:26.436Z,8.87
2022-11-26T18:35:54.223Z,8.86
2022-11-26T18:38:21.938Z,8.86
2022-11-26T18:41:01.096Z,8.79
2022-11-26T18:43:29.012Z,8.79
2022-11-26T18:45:57.221Z,8.77
2022-11-26T18:48:25.128Z,8.77
2022-11-26T18:50:57.423Z,8.74
2022-11-26T18:53:25.405Z,8.71
2022-11-26T18:55:53.598Z,8.68
2022-11-26T18:58:23.081Z,8.66
2022-11-26T19:00:51.726Z,8.68
2022-11-26T19:03:19.630Z,8.65
2022-11-26T19:05:50.446Z,8.62
2022-11-26T19:08:18.476Z,8.59
2022-11-26T19:10:46.732Z,8.58
2022-11-26T19:13:14.958Z,8.58
2022-11-26T19:15:45.839Z,8.56
2022-11-26T19:18:14.953Z,8.54
2022-11-26T19:20:48.685Z,8.51
2022-11-26T19:23:16.491Z,8.51
2022-11-26T19:25:45.570Z,8.49
2022-11-26T19:28:13.442Z,8.49
2022-11-26T19:30:41.275Z,8.47
2022-11-26T19:33:10.524Z,8.44
2022-11-26T19:35:40.180Z,8.42
2022-11-26T19:38:07.943Z,8.41
2022-11-26T19:40:35.679Z,8.40
2022-11-26T19:43:03.479Z,8.38
2022-11-26T19:45:31.261Z,8.38
2022-11-26T19:47:59.066Z,8.38
2022-11-26T19:50:28.234Z,8.36
2022-11-26T19:52:56.062Z,8.31
2022-11-26T19:55:23.868Z,8.31
2022-11-26T19:57:51.653Z,8.24
2022-11-26T20:00:19.810Z,8.20
2022-11-26T20:02:47.650Z,8.16
2022-11-26T20:05:15.423Z,8.14
2022-11-26T20:07:45.330Z,8.10
2022-11-26T20:10:14.773Z,8.09
2022-11-26T20:12:42.572Z,8.06
2022-11-26T20:15:11.364Z,8.07
2022-11-26T20:17:39.235Z,8.05
2022-11-26T20:20:08.350Z,8.03
2022-11-26T20:22:37.442Z,8.02
2022-11-26T20:25:09.070Z,8.03
2022-11-26T20:27:36.810Z,8.01
2022-11-26T20:30:04.969Z,8.02
2022-11-26T20:32:32.743Z,8.04
2022-11-26T20:35:00.521Z,8.04
2022-11-26T20:37:28.296Z,8.08
2022-11-26T20:39:56.015Z,8.11
2022-11-26T20:42:25.541Z,8.10
2022-11-26T20:44:53.285Z,8.13
2022-11-26T20:47:21.682Z,8.14
2022-11-26T20:49:49.426Z,8.19
2022-11-26T20:52:18.221Z,8.22
2022-11-26T20:54:49.525Z,8.20
2022-11-26T20:57:22.128Z,8.22
2022-11-26T20:59:51.356Z,8.24
2022-11-26T21:02:19.179Z,8.26
2022-11-26T21:04:46.915Z,8.27
2022-11-26T21:07:14.701Z,8.28
2022-11-26T21:09:42.579Z,8.27
2022-11-26T21:12:10.336Z,8.28
2022-11-26T21:14:38.058Z,8.28
2022-11-26T21:17:07.413Z,8.31
2022-11-26T21:19:35.268Z,8.31
2022-11-26T21:22:03.092Z,8.27
2022-11-26T21:24:30.861Z,8.28
2022-11-26T21:26:58.609Z,8.27
2022-11-26T21:29:26.517Z,8.27
2022-11-26T21:31:54.683Z,8.26
2022-11-26T21:34:23.964Z,8.28
2022-11-26T21:36:51.949Z,8.27
2022-11-26T21:39:19.770Z,8.26
2022-11-26T21:41:47.532Z,8.27
2022-11-26T21:44:15.388Z,8.30
2022-11-26T21:46:43.253Z,8.24
2022-11-26T21:49:11.111Z,8.26
2022-11-26T21:51:40.925Z,8.25
2022-11-26T21:54:10.365Z,8.25
2022-11-26T21:56:38.369Z,8.22
2022-11-26T21:59:06.098Z,8.22
2022-11-26T22:01:35.923Z,8.20
2022-11-26T22:04:08.081Z,8.21
2022-11-26T22:06:36.029Z,8.17
2022-11-26T22:09:06.240Z,8.14
2022-11-26T22:11:36.842Z,8.09
2022-11-26T22:14:05.446Z,8.05
2022-11-26T22:16:33.604Z,8.01
2022-11-26T22:19:02.775Z,7.97
2022-11-26T22:21:32.633Z,7.92
2022-11-26T22:24:01.863Z,7.92
2022-11-26T22:26:32.644Z,7.93
2022-11-26T22:29:01.114Z,7.87
2022-11-26T22:31:30.754Z,7.83
2022-11-26T22:34:00.885Z,7.85
2022-11-26T22:36:29.014Z,7.83
2022-11-26T22:38:56.927Z,7.81
2022-11-26T22:41:24.652Z,7.80
2022-11-26T22:43:53.858Z,7.78
2022-11-26T22:46:22.915Z,7.75
2022-11-26T22:48:52.093Z,7.71
2022-11-26T22:51:19.915Z,7.71
2022-11-26T22:53:51.102Z,7.70
2022-11-26T22:56:19.666Z,7.69
2022-11-26T22:58:47.646Z,7.66
2022-11-26T23:01:21.093Z,7.63
2022-11-26T23:03:49.455Z,7.59
2022-11-26T23:06:18.258Z,7.58
2022-11-26T23:08:47.095Z,7.60
2022-11-26T23:11:16.708Z,7.58
2022-11-26T23:13:46.103Z,7.55
2022-11-26T23:16:14.175Z,7.55
2022-11-26T23:18:43.666Z,7.56
2022-11-26T23:21:13.397Z,7.54
2022-11-26T23:23:42.486Z,7.49
2022-11-26T23:26:13.081Z,7.47
2022-11-26T23:28:40.788Z,7.44
2022-11-26T23:31:13.600Z,7.44
2022-11-26T23:33:41.404Z,7.45
2022-11-26T23:36:11.166Z,7.44
2022-11-26T23:38:39.108Z,7.42
2022-11-26T23:41:07.749Z,7.40
2022-11-26T23:43:37.241Z,7.40
2022-11-26T23:46:07.229Z,7.40
2022-11-26T23:48:35.293Z,7.41
2022-11-26T23:51:07.464Z,7.41
2022-11-26T23:53:37.533Z,7.39
2022-11-26T23:56:07.088Z,7.39
2022-11-26T23:58:35.516Z,7.37
